Terminal Aerodrome Forecast
Issued by NWS

Home | Current Version | Previous Version | Text Only | Print | Product List | Glossary On
Versions: 1 2 3 4 5 6 7 8 9 10 11 12 13 14
401
FTUS45 KFGZ 241120
TAFSEZ
TAF
KSEZ 241120Z 2412/2512 VRB06KT P6SM SKC
     FM241600 22015G25KT P6SM SKC
     FM250400 VRB06KT P6SM SKC=

USA.gov is the U.S. government's official web portal to all federal, state and local government web resources and services.